Terminal Aerodrome Forecast
Issued by NWS

Home | Current Version | Previous Version | Graphics & Text | Print | Product List | Glossary On
Versions: 1 2 3 4 5 6 7 8 9 10 11 12 13 14 15 16 17 18 19 20 21 22 23 24 25
000
FTUS43 KBIS 150155 AAB
TAFMOT
TAF AMD
KMOT 150155Z 1502/1524 31018G28KT P6SM BKN015
     FM151100 31015KT P6SM SCT015 BKN035
     FM151700 32009KT P6SM SCT030 SCT050
     FM152100 36007KT P6SM SCT250
     FM152200 02007KT P6SM BKN250=

USA.gov is the U.S. government's official web portal to all federal, state and local government web resources and services.